createdAt,value
2022-10-02T00:02:15.561Z,97588.44
2022-10-02T00:04:46.419Z,97573.06
2022-10-02T00:07:15.488Z,97576.38
2022-10-02T00:09:54.733Z,97580.97
2022-10-02T00:12:29.670Z,97575.94
2022-10-02T00:15:08.690Z,97573.53
2022-10-02T00:17:43.082Z,97581.25
2022-10-02T00:20:25.627Z,97574.72
2022-10-02T00:22:59.121Z,97582.38
2022-10-02T00:26:11.740Z,97582.38
2022-10-02T00:28:38.248Z,97579.75
2022-10-02T00:31:26.031Z,97592.91
2022-10-02T00:34:23.497Z,97599.91
2022-10-02T00:37:09.324Z,97594.03
2022-10-02T00:39:59.790Z,97595.66
2022-10-02T00:42:35.033Z,97597.91
2022-10-02T00:45:25.923Z,97608.03
2022-10-02T00:47:59.395Z,97609.56
2022-10-02T00:50:34.783Z,97604.13
2022-10-02T00:53:18.953Z,97612.66
2022-10-02T00:56:09.051Z,97611.88
2022-10-02T00:58:46.677Z,97618.50
2022-10-02T01:01:22.648Z,97615.28
2022-10-02T01:03:54.731Z,97615.72
2022-10-02T01:06:25.836Z,97612.50
2022-10-02T01:08:54.661Z,97609.06
2022-10-02T01:11:24.509Z,97607.88
2022-10-02T01:13:54.114Z,97612.91
2022-10-02T01:16:23.718Z,97621.09
2022-10-02T01:18:53.018Z,97612.22
2022-10-02T01:21:40.678Z,97609.00
2022-10-02T01:24:21.036Z,97611.25
2022-10-02T01:26:50.358Z,97607.47
2022-10-02T01:29:19.309Z,97610.56
2022-10-02T01:31:48.505Z,97607.81
2022-10-02T01:34:17.315Z,97625.66
2022-10-02T01:36:47.500Z,97622.22
2022-10-02T01:39:14.797Z,97610.50
2022-10-02T01:41:44.301Z,97608.59
2022-10-02T01:44:11.766Z,97611.72
2022-10-02T01:47:00.260Z,97612.03
2022-10-02T01:49:35.947Z,97616.72
2022-10-02T01:52:30.480Z,97611.94
2022-10-02T01:55:18.914Z,97600.41
2022-10-02T01:58:05.558Z,97607.25
2022-10-02T02:00:55.712Z,97607.31
2022-10-02T02:03:24.260Z,97602.31
2022-10-02T02:05:56.311Z,97597.41
2022-10-02T02:08:34.730Z,97607.25
2022-10-02T02:11:09.707Z,97603.00
2022-10-02T02:14:02.116Z,97606.09
2022-10-02T02:16:46.165Z,97597.19
2022-10-02T02:19:34.749Z,97603.50
2022-10-02T02:22:08.383Z,97606.22
2022-10-02T02:24:40.373Z,97611.69
2022-10-02T02:27:16.373Z,97604.34
2022-10-02T02:29:51.209Z,97604.69
2022-10-02T02:32:23.956Z,97604.28
2022-10-02T02:35:08.874Z,97605.03
2022-10-02T02:37:39.735Z,97603.50
2022-10-02T02:40:16.038Z,97602.66
2022-10-02T02:42:49.497Z,97599.59
2022-10-02T02:45:20.735Z,97603.84
2022-10-02T02:47:57.922Z,97604.97
2022-10-02T02:50:32.798Z,97596.78
2022-10-02T02:53:12.641Z,97604.97
2022-10-02T02:55:48.549Z,97597.19
2022-10-02T02:58:23.937Z,97607.63
2022-10-02T03:00:52.858Z,97596.78
2022-10-02T03:03:21.643Z,97599.84
2022-10-02T03:05:53.542Z,97607.13
2022-10-02T03:08:24.644Z,97609.44
2022-10-02T03:11:19.020Z,97609.78
2022-10-02T03:14:26.014Z,97607.81
2022-10-02T03:17:12.275Z,97602.88
2022-10-02T03:20:06.680Z,97599.66
2022-10-02T03:22:52.079Z,97604.28
2022-10-02T03:25:29.844Z,97594.50
2022-10-02T03:28:02.290Z,97601.53
2022-10-02T03:30:30.500Z,97596.09
2022-10-02T03:33:03.376Z,97590.72
2022-10-02T03:35:31.651Z,97598.06
2022-10-02T03:38:05.206Z,97598.41
2022-10-02T03:40:34.783Z,97598.72
2022-10-02T03:43:01.668Z,97594.91
2022-10-02T03:48:16.949Z,97602.72
2022-10-02T03:50:43.917Z,97598.88
2022-10-02T03:53:19.991Z,97607.81
2022-10-02T03:55:58.899Z,97606.59
2022-10-02T03:58:27.693Z,97596.88
2022-10-02T04:01:02.355Z,97594.13
2022-10-02T04:03:38.775Z,97578.69
2022-10-02T04:06:09.476Z,97594.56
2022-10-02T04:09:10.904Z,97604.94
2022-10-02T04:11:53.980Z,97597.53
2022-10-02T04:14:41.743Z,97601.13
2022-10-02T04:17:27.914Z,97596.09
2022-10-02T04:20:12.199Z,97595.75
2022-10-02T04:22:45.562Z,97590.28
2022-10-02T04:25:20.262Z,97596.56
2022-10-02T04:28:01.444Z,97598.13
2022-10-02T04:30:32.541Z,97589.78
2022-10-02T04:33:14.410Z,97589.25
2022-10-02T04:36:01.637Z,97594.72
2022-10-02T04:38:43.330Z,97594.63
2022-10-02T04:41:43.228Z,97586.03
2022-10-02T04:44:34.444Z,97586.38
2022-10-02T04:47:12.505Z,97577.00
2022-10-02T04:50:13.539Z,97579.75
2022-10-02T04:52:52.988Z,97578.97
2022-10-02T04:55:32.252Z,97574.28
2022-10-02T04:58:08.368Z,97582.88
2022-10-02T05:00:46.371Z,97568.13
2022-10-02T05:03:28.666Z,97578.56
2022-10-02T05:06:18.037Z,97580.88
2022-10-02T05:09:02.034Z,97571.91
2022-10-02T05:11:35.759Z,97570.72
2022-10-02T05:14:20.607Z,97574.19
2022-10-02T05:16:55.625Z,97572.25
2022-10-02T05:20:03.693Z,97572.69
2022-10-02T05:22:40.825Z,97559.13
2022-10-02T05:25:26.087Z,97572.25
2022-10-02T05:28:53.512Z,97567.56
2022-10-02T05:32:04.454Z,97575.75
2022-10-02T05:35:05.189Z,97576.94
2022-10-02T05:37:44.064Z,97578.47
2022-10-02T05:40:25.525Z,97579.66
2022-10-02T05:43:07.872Z,97579.66
2022-10-02T05:45:55.686Z,97569.59
2022-10-02T05:48:34.735Z,97578.13
2022-10-02T05:51:20.688Z,97571.81
2022-10-02T05:53:53.938Z,97572.94
2022-10-02T05:56:24.430Z,97569.09
2022-10-02T05:58:57.390Z,97568.66
2022-10-02T06:01:46.600Z,97572.81
2022-10-02T06:04:20.627Z,97574.00
2022-10-02T06:06:49.167Z,97582.13
2022-10-02T06:09:20.675Z,97577.84
2022-10-02T06:11:53.308Z,97580.53
2022-10-02T06:14:41.141Z,97576.59
2022-10-02T06:17:19.076Z,97570.38
2022-10-02T06:20:16.647Z,97569.09
2022-10-02T06:22:50.694Z,97561.69
2022-10-02T06:25:24.214Z,97566.66
2022-10-02T06:27:57.501Z,97567.78
2022-10-02T06:30:28.954Z,97562.75
2022-10-02T06:33:14.018Z,97573.56
2022-10-02T06:36:12.028Z,97571.78
2022-10-02T06:39:02.965Z,97573.59
2022-10-02T06:42:00.551Z,97567.13
2022-10-02T06:44:42.255Z,97562.78
2022-10-02T06:47:34.972Z,97566.59
2022-10-02T06:50:42.015Z,97565.69
2022-10-02T06:53:39.576Z,97568.66
2022-10-02T06:56:15.029Z,97561.59
2022-10-02T06:58:47.943Z,97558.09
2022-10-02T07:01:30.177Z,97573.22
2022-10-02T07:04:17.452Z,97568.75
2022-10-02T07:06:46.054Z,97572.25
2022-10-02T07:09:37.594Z,97571.84
2022-10-02T07:12:31.824Z,97568.34
2022-10-02T07:15:18.533Z,97559.38
2022-10-02T07:18:15.543Z,97561.16
2022-10-02T07:20:51.652Z,97549.63
2022-10-02T07:23:42.412Z,97559.00
2022-10-02T07:26:33.771Z,97556.94
2022-10-02T07:29:41.126Z,97555.66
2022-10-02T07:32:11.716Z,97558.00
2022-10-02T07:34:57.269Z,97562.94
2022-10-02T07:37:47.813Z,97554.41
2022-10-02T07:41:01.392Z,97555.53
2022-10-02T07:43:56.437Z,97554.47
2022-10-02T07:46:41.719Z,97556.13
2022-10-02T07:49:39.158Z,97561.25
2022-10-02T07:52:29.324Z,97557.97
2022-10-02T07:54:59.179Z,97557.84
2022-10-02T07:57:38.058Z,97556.91
2022-10-02T08:00:17.990Z,97561.59
2022-10-02T08:02:53.406Z,97546.97
2022-10-02T08:05:34.820Z,97547.72
2022-10-02T08:08:18.306Z,97547.03
2022-10-02T08:10:49.832Z,97558.44
2022-10-02T08:13:20.843Z,97561.91
2022-10-02T08:15:57.853Z,97555.38
2022-10-02T08:18:36.319Z,97536.66
2022-10-02T08:21:14.674Z,97526.69
2022-10-02T08:23:52.530Z,97532.94
2022-10-02T08:26:35.787Z,97543.34
2022-10-02T08:29:23.627Z,97537.56
2022-10-02T08:31:53.028Z,97531.97
2022-10-02T08:34:21.961Z,97534.13
2022-10-02T08:37:10.763Z,97536.44
2022-10-02T08:39:50.629Z,97531.41
2022-10-02T08:42:55.463Z,97527.28
2022-10-02T08:46:02.528Z,97526.53
2022-10-02T08:48:49.594Z,97521.06
2022-10-02T08:51:39.892Z,97524.19
2022-10-02T08:54:28.440Z,97526.66
2022-10-02T08:57:36.790Z,97525.22
2022-10-02T09:00:21.713Z,97519.00
2022-10-02T09:03:12.991Z,97510.91
2022-10-02T09:06:05.451Z,97516.69
2022-10-02T09:09:03.194Z,97517.69
2022-10-02T09:12:09.003Z,97520.50
2022-10-02T09:15:03.133Z,97514.84
2022-10-02T09:17:57.364Z,97516.38
2022-10-02T09:20:41.499Z,97522.84
2022-10-02T09:23:45.642Z,97529.50
2022-10-02T09:26:30.191Z,97526.44
2022-10-02T09:29:10.327Z,97526.53
2022-10-02T09:31:58.775Z,97524.66
2022-10-02T09:34:42.667Z,97522.81
2022-10-02T09:37:28.450Z,97517.22
2022-10-02T09:39:57.238Z,97524.56
2022-10-02T09:42:26.719Z,97521.06
2022-10-02T09:45:22.092Z,97521.16
2022-10-02T09:48:08.659Z,97512.00
2022-10-02T09:51:08.311Z,97517.47
2022-10-02T09:54:09.241Z,97507.75
2022-10-02T09:57:04.015Z,97498.75
2022-10-02T09:59:54.719Z,97490.63
2022-10-02T10:02:44.213Z,97501.38
2022-10-02T10:05:26.871Z,97501.69
2022-10-02T10:07:53.545Z,97482.06
2022-10-02T10:10:36.746Z,97486.56
2022-10-02T10:13:24.188Z,97489.72
2022-10-02T10:16:12.360Z,97489.56
2022-10-02T10:19:07.792Z,97490.38
2022-10-02T10:21:55.871Z,97486.16
2022-10-02T10:24:23.281Z,97481.28
2022-10-02T10:27:09.519Z,97476.22
2022-10-02T10:29:56.187Z,97476.47
2022-10-02T10:32:44.280Z,97467.69
2022-10-02T10:35:19.714Z,97481.09
2022-10-02T10:38:07.758Z,97481.78
2022-10-02T10:40:43.118Z,97485.06
2022-10-02T10:43:50.509Z,97475.31
2022-10-02T10:46:31.198Z,97467.19
2022-10-02T10:49:24.779Z,97475.59
2022-10-02T10:52:03.945Z,97475.53
2022-10-02T10:54:53.403Z,97473.94
2022-10-02T10:57:54.385Z,97477.34
2022-10-02T11:00:56.174Z,97465.72
2022-10-02T11:03:37.995Z,97472.78
2022-10-02T11:06:13.461Z,97473.38
2022-10-02T11:08:58.808Z,97473.06
2022-10-02T11:11:28.463Z,97467.56
2022-10-02T11:14:01.002Z,97463.56
2022-10-02T11:17:31.778Z,97456.63
2022-10-02T11:20:20.415Z,97421.16
2022-10-02T11:22:55.731Z,97474.19
2022-10-02T11:25:34.342Z,97459.97
2022-10-02T11:28:24.825Z,97463.34
2022-10-02T11:30:56.721Z,97447.72
2022-10-02T11:33:48.918Z,97443.03
2022-10-02T11:36:42.529Z,97444.78
2022-10-02T11:39:18.467Z,97438.56
2022-10-02T11:41:59.439Z,97439.50
2022-10-02T11:44:41.141Z,97434.13
2022-10-02T11:47:35.450Z,97440.69
2022-10-02T11:50:39.963Z,97440.06
2022-10-02T11:53:36.875Z,97430.28
2022-10-02T11:56:15.452Z,97431.69
2022-10-02T11:59:00.670Z,97432.59
2022-10-02T12:01:32.157Z,97426.16
2022-10-02T12:04:18.838Z,97422.97
2022-10-02T12:06:51.579Z,97427.69
2022-10-02T12:09:33.143Z,97422.66
2022-10-02T12:12:12.702Z,97413.34
2022-10-02T12:15:00.673Z,97413.41
2022-10-02T12:17:35.544Z,97419.38
2022-10-02T12:20:20.619Z,97419.09
2022-10-02T12:23:29.790Z,97413.47
2022-10-02T12:26:28.940Z,97407.19
2022-10-02T12:29:05.665Z,97404.41
2022-10-02T12:31:51.485Z,97397.50
2022-10-02T12:34:20.891Z,97398.19
2022-10-02T12:36:58.435Z,97381.31
2022-10-02T12:39:42.611Z,97395.38
2022-10-02T12:42:27.941Z,97391.66
2022-10-02T12:45:00.597Z,97388.97
2022-10-02T12:47:47.332Z,97389.19
2022-10-02T12:50:32.245Z,97384.63
2022-10-02T12:53:04.790Z,97378.94
2022-10-02T12:56:08.542Z,97385.69
2022-10-02T12:59:09.280Z,97380.81
2022-10-02T13:01:57.390Z,97375.88
2022-10-02T13:04:45.102Z,97366.53
2022-10-02T13:07:27.620Z,97373.66
2022-10-02T13:10:08.601Z,97368.97
2022-10-02T13:13:03.838Z,97358.63
2022-10-02T13:15:39.489Z,97373.41
2022-10-02T13:18:33.807Z,97381.59
2022-10-02T13:21:35.885Z,97378.97
2022-10-02T13:24:28.390Z,97377.19
2022-10-02T13:27:17.008Z,97376.63
2022-10-02T13:29:52.432Z,97371.72
2022-10-02T13:32:22.765Z,97371.13
2022-10-02T13:35:20.475Z,97372.03
2022-10-02T13:37:49.280Z,97365.53
2022-10-02T13:40:28.644Z,97366.63
2022-10-02T13:43:09.969Z,97373.59
2022-10-02T13:46:02.456Z,97365.09
2022-10-02T13:48:58.763Z,97373.41
2022-10-02T13:51:34.654Z,97371.41
2022-10-02T13:54:24.335Z,97368.25
2022-10-02T13:57:15.846Z,97371.56
2022-10-02T14:00:00.669Z,97363.19
2022-10-02T14:02:44.666Z,97363.16
2022-10-02T14:05:36.077Z,97364.91
2022-10-02T14:08:21.188Z,97364.44
2022-10-02T14:11:20.381Z,97360.97
2022-10-02T14:14:06.850Z,97362.03
2022-10-02T14:16:55.315Z,97363.84
2022-10-02T14:19:40.242Z,97359.28
2022-10-02T14:22:21.733Z,97362.91
2022-10-02T14:25:22.854Z,97360.56
2022-10-02T14:28:07.202Z,97352.38
2022-10-02T14:30:33.735Z,97350.25
2022-10-02T14:33:09.407Z,97354.53
2022-10-02T14:35:54.049Z,97349.22
2022-10-02T14:38:54.400Z,97349.19
2022-10-02T14:41:28.957Z,97344.91
2022-10-02T14:44:16.802Z,97354.06
2022-10-02T14:47:02.102Z,97351.47
2022-10-02T14:49:44.633Z,97354.69
2022-10-02T14:52:28.806Z,97363.53
2022-10-02T14:55:01.968Z,97355.28
2022-10-02T14:57:30.488Z,97364.31
2022-10-02T15:00:00.091Z,97357.47
2022-10-02T15:02:50.993Z,97360.03
2022-10-02T15:05:32.728Z,97373.47
2022-10-02T15:08:12.604Z,97366.28
2022-10-02T15:10:44.866Z,97363.41
2022-10-02T15:13:28.370Z,97371.81
2022-10-02T15:16:16.709Z,97368.75
2022-10-02T15:18:55.379Z,97366.16
2022-10-02T15:21:47.405Z,97370.75
2022-10-02T15:24:34.159Z,97366.94
2022-10-02T15:27:23.840Z,97380.13
2022-10-02T15:30:02.457Z,97391.09
2022-10-02T15:32:47.878Z,97397.81
2022-10-02T15:35:35.857Z,97403.63
2022-10-02T15:38:30.962Z,97411.09
2022-10-02T15:41:16.674Z,97410.47
2022-10-02T15:44:06.721Z,97415.34
2022-10-02T15:46:42.160Z,97414.53
2022-10-02T15:49:12.536Z,97424.75
2022-10-02T15:52:00.651Z,97422.28
2022-10-02T15:54:51.922Z,97418.03
2022-10-02T15:57:29.609Z,97429.75
2022-10-02T16:00:09.354Z,97435.22
2022-10-02T16:03:10.089Z,97438.28
2022-10-02T16:05:39.386Z,97442.06
2022-10-02T16:08:19.745Z,97442.81
2022-10-02T16:10:58.542Z,97443.38
2022-10-02T16:13:47.344Z,97447.66
2022-10-02T16:16:25.291Z,97460.28
2022-10-02T16:19:07.347Z,97458.75
2022-10-02T16:21:45.847Z,97464.53
2022-10-02T16:24:28.423Z,97464.50
2022-10-02T16:27:19.678Z,97474.38
2022-10-02T16:29:49.181Z,97472.84
2022-10-02T16:32:41.764Z,97477.81
2022-10-02T16:35:43.716Z,97465.56
2022-10-02T16:38:52.383Z,97469.16
2022-10-02T16:41:25.275Z,97480.47
2022-10-02T16:44:03.938Z,97481.78
2022-10-02T16:46:44.940Z,97484.97
2022-10-02T16:49:25.817Z,97485.69
2022-10-02T16:51:55.274Z,97491.00
2022-10-02T16:54:24.798Z,97494.75
2022-10-02T16:56:59.233Z,97491.03
2022-10-02T16:59:31.176Z,97495.69
2022-10-02T17:02:18.166Z,97481.25
2022-10-02T17:05:09.358Z,97503.84
2022-10-02T17:07:42.282Z,97512.94
2022-10-02T17:10:50.424Z,97521.25
2022-10-02T17:13:29.636Z,97509.47
2022-10-02T17:15:59.259Z,97524.59
2022-10-02T17:18:46.374Z,97522.28
2022-10-02T17:21:19.847Z,97526.78
2022-10-02T17:24:22.165Z,97520.78
2022-10-02T17:27:03.940Z,97534.03
2022-10-02T17:29:43.298Z,97527.78
2022-10-02T17:32:14.962Z,97519.81
2022-10-02T17:34:49.178Z,97521.56
2022-10-02T17:37:18.407Z,97524.56
2022-10-02T17:40:22.212Z,97530.56
2022-10-02T17:43:15.891Z,97527.84
2022-10-02T17:46:01.994Z,97527.97
2022-10-02T17:48:51.504Z,97531.59
2022-10-02T17:51:59.268Z,97524.72
2022-10-02T17:54:50.481Z,97531.81
2022-10-02T17:58:13.176Z,97528.66
2022-10-02T18:00:58.336Z,97521.44
2022-10-02T18:03:49.513Z,97525.56
2022-10-02T18:06:30.544Z,97526.13
2022-10-02T18:09:30.184Z,97537.59
2022-10-02T18:12:16.236Z,97542.19
2022-10-02T18:14:55.357Z,97549.09
2022-10-02T18:17:41.429Z,97546.69
2022-10-02T18:20:34.459Z,97540.00
2022-10-02T18:23:00.981Z,97549.97
2022-10-02T18:25:50.908Z,97546.38
2022-10-02T18:28:23.461Z,97531.16
2022-10-02T18:30:58.848Z,97541.09
2022-10-02T18:33:54.456Z,97552.03
2022-10-02T18:37:04.323Z,97563.41
2022-10-02T18:39:44.898Z,97566.50
2022-10-02T18:42:41.005Z,97578.56
2022-10-02T18:45:45.665Z,97580.53
2022-10-02T18:48:39.398Z,97588.31
2022-10-02T18:51:28.979Z,97588.19
2022-10-02T18:54:12.920Z,97581.19
2022-10-02T18:56:59.681Z,97581.66
2022-10-02T18:59:36.851Z,97578.13
2022-10-02T19:02:20.728Z,97581.31
2022-10-02T19:04:50.461Z,97573.44
2022-10-02T19:07:49.334Z,97580.28
2022-10-02T19:10:29.387Z,97581.03
2022-10-02T19:13:18.192Z,97574.16
2022-10-02T19:15:46.758Z,97571.84
2022-10-02T19:18:20.525Z,97577.97
2022-10-02T19:20:58.084Z,97580.84
2022-10-02T19:23:32.902Z,97586.19
2022-10-02T19:26:17.258Z,97576.41
2022-10-02T19:28:58.822Z,97585.38
2022-10-02T19:31:39.648Z,97582.41
2022-10-02T19:34:17.439Z,97585.38
2022-10-02T19:36:50.421Z,97572.91
2022-10-02T19:39:36.838Z,97583.84
2022-10-02T19:42:15.253Z,97576.72
2022-10-02T19:44:47.541Z,97587.44
2022-10-02T19:47:27.400Z,97590.69
2022-10-02T19:49:56.962Z,97602.53
2022-10-02T19:52:37.893Z,97602.88
2022-10-02T19:55:35.546Z,97602.97
2022-10-02T19:58:25.002Z,97608.84
2022-10-02T20:00:53.451Z,97613.25
2022-10-02T20:03:22.183Z,97614.53
2022-10-02T20:05:59.457Z,97618.81
2022-10-02T20:08:31.163Z,97609.59
2022-10-02T20:11:08.029Z,97609.91
2022-10-02T20:13:40.884Z,97608.59
2022-10-02T20:16:38.705Z,97608.25
2022-10-02T20:19:08.172Z,97604.44
2022-10-02T20:21:43.576Z,97608.78
2022-10-02T20:24:36.119Z,97604.94
2022-10-02T20:27:13.353Z,97619.47
2022-10-02T20:29:48.922Z,97619.38
2022-10-02T20:32:27.575Z,97632.97
2022-10-02T20:35:03.323Z,97625.28
2022-10-02T20:37:35.006Z,97626.81
2022-10-02T20:40:13.338Z,97618.59
2022-10-02T20:43:25.686Z,97627.78
2022-10-02T20:45:59.865Z,97628.44
2022-10-02T20:49:08.001Z,97626.81
2022-10-02T20:52:05.512Z,97628.78
2022-10-02T20:54:42.021Z,97626.13
2022-10-02T20:57:20.744Z,97641.44
2022-10-02T21:00:16.880Z,97644.59
2022-10-02T21:03:08.451Z,97641.09
2022-10-02T21:06:08.535Z,97633.66
2022-10-02T21:08:41.288Z,97638.78
2022-10-02T21:11:39.364Z,97645.03
2022-10-02T21:14:45.225Z,97637.69
2022-10-02T21:17:46.658Z,97627.94
2022-10-02T21:20:53.568Z,97646.22
2022-10-02T21:23:32.094Z,97646.66
2022-10-02T21:26:19.932Z,97645.44
2022-10-02T21:29:04.699Z,97645.44
2022-10-02T21:32:02.398Z,97652.88
2022-10-02T21:34:54.027Z,97651.75
2022-10-02T21:37:26.621Z,97659.97
2022-10-02T21:40:12.535Z,97663.47
2022-10-02T21:43:06.884Z,97659.72
2022-10-02T21:45:36.365Z,97661.25
2022-10-02T21:48:24.396Z,97659.31
2022-10-02T21:51:22.505Z,97665.19
2022-10-02T21:54:26.761Z,97665.63
2022-10-02T21:57:14.506Z,97662.13
2022-10-02T22:00:15.885Z,97657.50
2022-10-02T22:02:50.494Z,97667.34
2022-10-02T22:05:46.563Z,97672.03
2022-10-02T22:08:36.938Z,97669.31
2022-10-02T22:11:26.789Z,97676.03
2022-10-02T22:14:02.240Z,97668.78
2022-10-02T22:17:06.121Z,97664.00
2022-10-02T22:19:51.278Z,97667.66
2022-10-02T22:22:46.027Z,97669.94
2022-10-02T22:25:18.976Z,97670.78
2022-10-02T22:28:02.842Z,97665.34
2022-10-02T22:30:39.448Z,97672.41
2022-10-02T22:33:27.986Z,97670.44
2022-10-02T22:36:25.706Z,97672.41
2022-10-02T22:39:24.008Z,97675.16
2022-10-02T22:42:12.311Z,97667.28
2022-10-02T22:44:41.843Z,97673.19
2022-10-02T22:47:12.149Z,97675.84
2022-10-02T22:49:48.956Z,97669.69
2022-10-02T22:52:32.401Z,97668.94
2022-10-02T22:55:08.723Z,97672.00
2022-10-02T22:57:44.518Z,97680.59
2022-10-02T23:00:23.652Z,97671.66
2022-10-02T23:02:56.897Z,97675.31
2022-10-02T23:05:36.914Z,97681.91
2022-10-02T23:08:48.842Z,97680.38
2022-10-02T23:11:44.651Z,97686.16
2022-10-02T23:14:24.743Z,97681.91
2022-10-02T23:17:01.438Z,97680.00
2022-10-02T23:19:44.597Z,97689.66
2022-10-02T23:22:26.564Z,97681.91
2022-10-02T23:25:02.111Z,97686.25
2022-10-02T23:27:50.414Z,97697.09
2022-10-02T23:30:23.596Z,97689.16
2022-10-02T23:32:59.898Z,97686.66
2022-10-02T23:35:37.188Z,97696.31
2022-10-02T23:38:14.544Z,97696.50
2022-10-02T23:41:24.000Z,97703.81
2022-10-02T23:43:58.652Z,97703.28
2022-10-02T23:46:31.425Z,97703.66
2022-10-02T23:48:59.081Z,97707.31
2022-10-02T23:52:09.167Z,97705.78
2022-10-02T23:54:51.345Z,97697.59
2022-10-02T23:57:23.834Z,97701.56
